VTCC/CNX METAR and TAF weather

Enter ICAO airport designator
Station Type Date Time Source
VTCC METAR 2020/04/02 03:00 UTC NOAA

VTCC 020300Z 12003KT 060V180 5000 FU HZ NSC 31/13 Q1012 NOSIG


Station Type Date Time Source
VTCC Decoded METAR 2020/04/02 03:00 UTC NOAA

Chiang Mai, Thailand (VTCC) 18-47N 098-59E 314M
Apr 01, 2020 - 11:00 PM EDT / 2020.04.02 0300 UTC
Wind: from the ESE (120 degrees) at 3 MPH (3 KT) (direction variable):0
Visibility: 3 mile(s):0
Weather: smoke; haze
Temperature: 87 F (31 C)
Dew Point: 55 F (13 C)
Relative Humidity: 33%
Pressure (altimeter): 29.88 in. Hg (1012 hPa)
ob: VTCC 020300Z 12003KT 060V180 5000 FU HZ NSC 31/13 Q1012 NOSIG
cycle: 3

Station Type Date Time Source
VTCC TAF 2020/04/01 18:39 UTC NOAA

TAF VTCC 011700Z 0118/0224 33004KT 8000 NSC
BECMG 0121/0123 18005KT 4000 HZ
BECMG 0202/0204 8000 NSW FEW035

Example: see airport list